createdAt,value
2017-05-20T00:00:53.311Z,12.29
2017-05-20T00:02:14.502Z,12.29
2017-05-20T00:03:36.351Z,12.29
2017-05-20T00:04:59.072Z,12.32
2017-05-20T00:06:20.931Z,12.27
2017-05-20T00:07:42.873Z,12.32
2017-05-20T00:09:04.714Z,12.35
2017-05-20T00:10:27.171Z,12.32
2017-05-20T00:11:49.021Z,12.24
2017-05-20T00:13:10.333Z,12.32
2017-05-20T00:14:32.864Z,12.31
2017-05-20T00:15:55.790Z,12.45
2017-05-20T00:17:17.371Z,12.41
2017-05-20T00:18:39.251Z,12.29
2017-05-20T00:20:01.081Z,12.41
2017-05-20T00:21:23.846Z,12.41
2017-05-20T00:22:45.991Z,12.39
2017-05-20T00:24:08.141Z,12.35
2017-05-20T00:25:30.019Z,12.41
2017-05-20T00:26:52.470Z,12.35
2017-05-20T00:28:14.629Z,12.38
2017-05-20T00:29:36.482Z,12.41
2017-05-20T00:30:58.957Z,12.34
2017-05-20T00:32:21.440Z,12.39
2017-05-20T00:33:43.390Z,12.41
2017-05-20T00:35:04.899Z,12.34
2017-05-20T00:36:26.720Z,12.45
2017-05-20T00:37:49.292Z,12.39
2017-05-20T00:39:11.110Z,12.42
2017-05-20T00:40:33.264Z,12.41
2017-05-20T00:41:55.110Z,12.41
2017-05-20T00:43:17.297Z,12.37
2017-05-20T00:44:39.108Z,12.29
2017-05-20T00:46:00.940Z,12.42
2017-05-20T00:47:22.798Z,12.29
2017-05-20T00:48:44.932Z,12.29
2017-05-20T00:50:07.110Z,12.45
2017-05-20T00:51:28.656Z,12.37
2017-05-20T00:52:50.510Z,12.37
2017-05-20T00:54:12.455Z,12.31
2017-05-20T00:55:34.297Z,12.37
2017-05-20T00:56:55.816Z,12.42
2017-05-20T00:58:17.330Z,12.32
2017-05-20T00:59:39.848Z,12.37
2017-05-20T01:01:01.378Z,12.37
2017-05-20T01:02:23.210Z,12.41
2017-05-20T01:03:45.383Z,12.32
2017-05-20T01:05:07.668Z,12.37
2017-05-20T01:06:29.580Z,12.38
2017-05-20T01:07:51.455Z,12.38
2017-05-20T01:09:12.784Z,12.39
2017-05-20T01:10:34.399Z,12.29
2017-05-20T01:11:56.636Z,12.38
2017-05-20T01:13:19.111Z,12.42
2017-05-20T01:14:40.950Z,12.31
2017-05-20T01:16:03.500Z,12.47
2017-05-20T01:17:25.963Z,12.39
2017-05-20T01:18:47.820Z,12.37
2017-05-20T01:20:09.649Z,12.45
2017-05-20T01:21:32.136Z,12.42
2017-05-20T01:22:53.952Z,12.53
2017-05-20T01:24:15.210Z,12.45
2017-05-20T01:25:37.369Z,12.5
2017-05-20T01:26:59.212Z,12.45
2017-05-20T01:28:21.692Z,12.47
2017-05-20T01:29:43.552Z,12.42
2017-05-20T01:31:05.081Z,12.45
2017-05-20T01:32:27.303Z,12.38
2017-05-20T01:33:49.446Z,12.39
2017-05-20T01:35:11.280Z,12.42
2017-05-20T01:36:33.410Z,12.45
2017-05-20T01:37:55.619Z,12.45
2017-05-20T01:39:17.477Z,12.49
2017-05-20T01:40:39.683Z,12.46
2017-05-20T01:42:00.929Z,12.46
2017-05-20T01:43:23.126Z,12.41
2017-05-20T01:44:44.693Z,12.53
2017-05-20T01:46:06.851Z,12.47
2017-05-20T01:47:28.674Z,12.54
2017-05-20T01:48:50.802Z,12.5
2017-05-20T01:50:13.049Z,12.53
2017-05-20T01:51:34.900Z,12.52
2017-05-20T01:52:56.727Z,12.5
2017-05-20T01:54:18.590Z,12.5
2017-05-20T01:55:40.413Z,12.46
2017-05-20T01:57:02.236Z,12.49
2017-05-20T01:58:24.062Z,12.54
2017-05-20T01:59:46.661Z,12.5
2017-05-20T02:01:08.810Z,12.5
2017-05-20T02:02:30.370Z,12.54
2017-05-20T02:03:52.949Z,12.53
2017-05-20T02:05:15.669Z,12.53
2017-05-20T02:06:37.484Z,12.54
2017-05-20T02:07:59.650Z,12.52
2017-05-20T02:09:21.811Z,12.5
2017-05-20T02:10:43.642Z,12.59
2017-05-20T02:12:05.471Z,12.49
2017-05-20T02:13:27.941Z,12.54
2017-05-20T02:14:49.767Z,12.52
2017-05-20T02:16:12.217Z,12.54
2017-05-20T02:17:34.042Z,12.52
2017-05-20T02:18:55.569Z,12.54
2017-05-20T02:20:18.026Z,12.45
2017-05-20T02:21:40.628Z,12.47
2017-05-20T02:23:02.201Z,12.45
2017-05-20T02:24:24.082Z,12.47
2017-05-20T02:25:46.230Z,12.37
2017-05-20T02:27:08.079Z,12.39
2017-05-20T02:28:30.230Z,12.38
2017-05-20T02:29:52.071Z,12.39
2017-05-20T02:31:13.589Z,12.41
2017-05-20T02:32:36.014Z,12.42
2017-05-20T02:33:57.915Z,12.46
2017-05-20T02:35:19.203Z,12.45
2017-05-20T02:36:41.367Z,12.38
2017-05-20T02:38:03.362Z,12.42
2017-05-20T02:39:24.883Z,12.34
2017-05-20T02:40:46.072Z,12.41
2017-05-20T02:42:07.888Z,12.35
2017-05-20T02:43:29.990Z,12.49
2017-05-20T02:44:51.965Z,12.42
2017-05-20T02:46:13.884Z,12.42
2017-05-20T02:47:36.150Z,12.47
2017-05-20T02:48:57.592Z,12.39
2017-05-20T02:50:19.427Z,12.38
2017-05-20T02:51:41.228Z,12.41
2017-05-20T02:53:02.736Z,12.47
2017-05-20T02:54:24.571Z,12.38
2017-05-20T02:55:47.053Z,12.37
2017-05-20T02:57:08.250Z,12.38
2017-05-20T02:58:30.419Z,12.39
2017-05-20T02:59:51.967Z,12.45
2017-05-20T03:01:13.859Z,12.42
2017-05-20T03:02:36.427Z,12.49
2017-05-20T03:03:58.251Z,12.42
2017-05-20T03:05:20.808Z,12.47
2017-05-20T03:06:42.941Z,12.5
2017-05-20T03:08:04.481Z,12.57
2017-05-20T03:09:26.058Z,12.54
2017-05-20T03:10:48.249Z,12.5
2017-05-20T03:12:10.467Z,12.5
2017-05-20T03:13:32.612Z,12.54
2017-05-20T03:14:54.751Z,12.59
2017-05-20T03:16:17.358Z,12.54
2017-05-20T03:17:38.868Z,12.53
2017-05-20T03:19:00.061Z,12.59
2017-05-20T03:20:22.214Z,12.6
2017-05-20T03:21:44.552Z,12.68
2017-05-20T03:23:06.687Z,12.64
2017-05-20T03:24:28.871Z,12.65
2017-05-20T03:25:50.390Z,12.72
2017-05-20T03:27:12.271Z,12.71
2017-05-20T03:28:34.131Z,12.74
2017-05-20T03:29:55.986Z,12.78
2017-05-20T03:31:18.122Z,12.79
2017-05-20T03:32:39.960Z,12.75
2017-05-20T03:34:01.469Z,12.79
2017-05-20T03:35:23.396Z,12.79
2017-05-20T03:36:45.542Z,12.79
2017-05-20T03:38:07.037Z,12.74
2017-05-20T03:39:28.726Z,12.82
2017-05-20T03:40:49.924Z,12.78
2017-05-20T03:42:12.128Z,12.85
2017-05-20T03:43:34.632Z,12.82
2017-05-20T03:44:56.464Z,12.77
2017-05-20T03:46:18.319Z,12.78
2017-05-20T03:47:39.943Z,12.79
2017-05-20T03:49:02.693Z,12.62
2017-05-20T03:50:24.523Z,12.56
2017-05-20T03:51:47.039Z,12.56
2017-05-20T03:53:08.911Z,12.54
2017-05-20T03:54:31.041Z,12.52
2017-05-20T03:55:52.915Z,12.56
2017-05-20T03:57:14.737Z,12.52
2017-05-20T03:58:36.590Z,12.53
2017-05-20T03:59:59.040Z,12.5
2017-05-20T04:01:20.874Z,12.6
2017-05-20T04:02:42.467Z,12.57
2017-05-20T04:04:04.386Z,12.57
2017-05-20T04:05:26.603Z,12.6
2017-05-20T04:06:49.157Z,12.71
2017-05-20T04:08:10.778Z,12.67
2017-05-20T04:09:32.936Z,12.74
2017-05-20T04:10:55.172Z,12.82
2017-05-20T04:12:17.022Z,12.85
2017-05-20T04:13:39.252Z,12.89
2017-05-20T04:15:01.391Z,12.86
2017-05-20T04:16:23.474Z,12.89
2017-05-20T04:17:45.310Z,12.93
2017-05-20T04:19:07.209Z,13.01
2017-05-20T04:20:29.336Z,13.12
2017-05-20T04:21:51.630Z,13.17
2017-05-20T04:23:13.520Z,13.39
2017-05-20T04:24:35.033Z,13.51
2017-05-20T04:25:56.849Z,13.51
2017-05-20T04:27:19.069Z,13.66
2017-05-20T04:28:41.213Z,13.82
2017-05-20T04:30:03.470Z,13.88
2017-05-20T04:31:25.369Z,13.92
2017-05-20T04:32:47.549Z,14.09
2017-05-20T04:34:09.067Z,14.09
2017-05-20T04:35:30.730Z,14.07
2017-05-20T04:36:52.558Z,14.06
2017-05-20T04:38:14.061Z,14.03
2017-05-20T04:39:36.249Z,13.87
2017-05-20T04:40:57.753Z,13.7
2017-05-20T04:42:19.890Z,13.57
2017-05-20T04:43:42.730Z,13.48
2017-05-20T04:45:04.854Z,13.46
2017-05-20T04:46:26.059Z,13.41
2017-05-20T04:47:47.895Z,13.41
2017-05-20T04:49:10.528Z,13.55
2017-05-20T04:50:32.457Z,13.71
2017-05-20T04:51:54.832Z,13.81
2017-05-20T04:53:16.974Z,14.02
2017-05-20T04:54:38.922Z,14
2017-05-20T04:56:01.138Z,14.02
2017-05-20T04:57:22.664Z,14.17
2017-05-20T04:58:44.917Z,14.24
2017-05-20T05:00:07.373Z,14.28
2017-05-20T05:01:29.588Z,14.4
2017-05-20T05:02:51.080Z,14.28
2017-05-20T05:04:12.905Z,14.29
2017-05-20T05:05:34.879Z,14.22
2017-05-20T05:06:57.041Z,14.2
2017-05-20T05:08:19.085Z,14.29
2017-05-20T05:09:41.232Z,14.21
2017-05-20T05:11:03.460Z,14.18
2017-05-20T05:12:25.624Z,14.21
2017-05-20T05:13:47.451Z,14.24
2017-05-20T05:15:09.607Z,14.17
2017-05-20T05:16:31.916Z,14.09
2017-05-20T05:17:54.146Z,14.03
2017-05-20T05:19:16.107Z,14.03
2017-05-20T05:20:38.322Z,14.04
2017-05-20T05:22:00.593Z,14.2
2017-05-20T05:23:22.413Z,14.24
2017-05-20T05:24:44.059Z,14.39
2017-05-20T05:26:06.303Z,14.52
2017-05-20T05:27:28.271Z,14.89
2017-05-20T05:28:50.853Z,15.17
2017-05-20T05:30:12.998Z,15.43
2017-05-20T05:31:34.199Z,15.65
2017-05-20T05:32:56.695Z,16.04
2017-05-20T05:34:18.646Z,16.48
2017-05-20T05:35:40.808Z,16.81
2017-05-20T05:37:03.078Z,16.81
2017-05-20T05:38:25.268Z,16.7
2017-05-20T05:39:47.118Z,16.52
2017-05-20T05:41:08.956Z,16.42
2017-05-20T05:42:30.516Z,16.28
2017-05-20T05:43:52.405Z,16.24
2017-05-20T05:45:14.574Z,16.07
2017-05-20T05:46:36.740Z,15.78
2017-05-20T05:47:58.579Z,15.75
2017-05-20T05:49:21.122Z,15.75
2017-05-20T05:50:43.399Z,15.82
2017-05-20T05:52:05.561Z,15.82
2017-05-20T05:53:27.440Z,15.59
2017-05-20T05:54:50.061Z,15.31
2017-05-20T05:56:11.578Z,15.21
2017-05-20T05:57:34.043Z,15.23
2017-05-20T05:58:56.189Z,15.28
2017-05-20T06:00:18.644Z,15.38
2017-05-20T06:01:40.541Z,15.35
2017-05-20T06:03:02.739Z,15.34
2017-05-20T06:04:24.890Z,15.31
2017-05-20T06:05:47.359Z,15.35
2017-05-20T06:07:09.595Z,15.46
2017-05-20T06:08:31.770Z,15.67
2017-05-20T06:09:53.591Z,15.8
2017-05-20T06:11:15.728Z,15.92
2017-05-20T06:12:37.667Z,17.49
2017-05-20T06:13:59.550Z,18.84
2017-05-20T06:15:21.697Z,19.61
2017-05-20T06:16:43.869Z,20.31
2017-05-20T06:18:05.380Z,21.01
2017-05-20T06:19:27.339Z,21.68
2017-05-20T06:20:48.637Z,23.23
2017-05-20T06:22:10.229Z,24.8
2017-05-20T06:23:32.439Z,25.33
2017-05-20T06:24:55.032Z,26.12
2017-05-20T06:26:17.609Z,25.4
2017-05-20T06:27:39.478Z,23.95
2017-05-20T06:29:01.022Z,22.62
2017-05-20T06:30:23.309Z,21.68
2017-05-20T06:31:44.966Z,20.99
2017-05-20T06:33:07.239Z,20.38
2017-05-20T06:34:29.447Z,20.11
2017-05-20T06:35:51.313Z,21.83
2017-05-20T06:37:13.798Z,22.88
2017-05-20T06:38:36.250Z,22.46
2017-05-20T06:39:58.173Z,22
2017-05-20T06:41:20.334Z,21.35
2017-05-20T06:42:42.262Z,21.12
2017-05-20T06:44:04.916Z,21.37
2017-05-20T06:45:27.166Z,23.47
2017-05-20T06:46:49.079Z,24
2017-05-20T06:48:11.256Z,24.1
2017-05-20T06:49:34.183Z,23.97
2017-05-20T06:50:56.426Z,23.23
2017-05-20T06:52:18.473Z,22.31
2017-05-20T06:53:41.028Z,21.92
2017-05-20T06:55:03.191Z,22.1
2017-05-20T06:56:25.322Z,22.51
2017-05-20T06:57:46.846Z,22.64
2017-05-20T06:59:08.699Z,23.23
2017-05-20T07:00:31.399Z,23.27
2017-05-20T07:01:53.589Z,22.73
2017-05-20T07:03:15.442Z,22.17
2017-05-20T07:04:37.453Z,21.79
2017-05-20T07:05:59.921Z,21.17
2017-05-20T07:07:22.506Z,22.18
2017-05-20T07:08:44.346Z,22.77
2017-05-20T07:10:06.530Z,23
2017-05-20T07:11:28.991Z,22.97
2017-05-20T07:12:50.922Z,22.51
2017-05-20T07:14:12.769Z,22.25
2017-05-20T07:15:35.063Z,22.18
2017-05-20T07:16:56.907Z,21.69
2017-05-20T07:18:19.174Z,21.22
2017-05-20T07:19:41.656Z,21.06
2017-05-20T07:21:03.819Z,20.72
2017-05-20T07:22:26.653Z,20.98
2017-05-20T07:23:48.535Z,21.61
2017-05-20T07:25:10.151Z,21.46
2017-05-20T07:26:32.638Z,21.01
2017-05-20T07:27:55.362Z,21.03
2017-05-20T07:29:16.889Z,20.79
2017-05-20T07:30:39.083Z,20.54
2017-05-20T07:32:01.349Z,20.47
2017-05-20T07:33:23.869Z,22.1
2017-05-20T07:34:45.080Z,24.25
2017-05-20T07:36:06.927Z,26.63
2017-05-20T07:37:28.181Z,28.29
2017-05-20T07:38:50.425Z,29.79
2017-05-20T07:40:12.607Z,30.42
2017-05-20T07:41:34.329Z,30
2017-05-20T07:42:56.502Z,28.52
2017-05-20T07:44:19.455Z,27.37
2017-05-20T07:45:41.973Z,28.19
2017-05-20T07:47:03.699Z,29.55
2017-05-20T07:48:25.869Z,29.98
2017-05-20T07:49:48.337Z,28.77
2017-05-20T07:51:09.872Z,27.65
2017-05-20T07:52:32.039Z,28.4
2017-05-20T07:53:54.198Z,27.74
2017-05-20T07:55:16.446Z,26.21
2017-05-20T07:56:38.609Z,26.58
2017-05-20T07:58:00.159Z,27.44
2017-05-20T07:59:22.467Z,28.43
2017-05-20T08:00:44.919Z,28.77
2017-05-20T08:02:07.405Z,28.7
2017-05-20T08:03:29.278Z,29.14
2017-05-20T08:04:51.780Z,29.52
2017-05-20T08:06:13.876Z,29.63
2017-05-20T08:07:36.359Z,29.27
2017-05-20T08:08:58.228Z,28.55
2017-05-20T08:10:20.070Z,27.43
2017-05-20T08:11:41.918Z,26.85
2017-05-20T08:13:04.099Z,26.28
2017-05-20T08:14:25.967Z,25.77
2017-05-20T08:15:47.816Z,25.38
2017-05-20T08:17:10.598Z,24.81
2017-05-20T08:18:32.509Z,24.31
2017-05-20T08:19:54.371Z,24.06
2017-05-20T08:21:16.331Z,23.97
2017-05-20T08:22:38.500Z,23.88
2017-05-20T08:24:01.061Z,23.35
2017-05-20T08:25:22.914Z,22.97
2017-05-20T08:26:44.509Z,22.52
2017-05-20T08:28:06.938Z,22.28
2017-05-20T08:29:28.768Z,22.37
2017-05-20T08:30:50.774Z,22.17
2017-05-20T08:32:12.613Z,21.92
2017-05-20T08:33:34.760Z,21.37
2017-05-20T08:34:56.990Z,20.97
2017-05-20T08:36:18.509Z,20.8
2017-05-20T08:37:41.039Z,20.77
2017-05-20T08:39:03.650Z,20.54
2017-05-20T08:40:25.854Z,20.41
2017-05-20T08:41:48.026Z,20.48
2017-05-20T08:43:09.650Z,20.52
2017-05-20T08:44:31.856Z,20.5
2017-05-20T08:45:53.708Z,20.14
2017-05-20T08:47:15.561Z,20.01
2017-05-20T08:48:37.755Z,20.03
2017-05-20T08:49:59.958Z,20.11
2017-05-20T08:51:22.132Z,20.1
2017-05-20T08:52:43.803Z,19.92
2017-05-20T08:54:05.977Z,19.81
2017-05-20T08:55:28.170Z,19.91
2017-05-20T08:56:50.320Z,19.73
2017-05-20T08:58:12.149Z,19.71
2017-05-20T08:59:34.055Z,19.8
2017-05-20T09:00:56.537Z,19.88
2017-05-20T09:02:18.389Z,19.99
2017-05-20T09:03:40.230Z,19.95
2017-05-20T09:05:01.841Z,19.86
2017-05-20T09:06:24.386Z,19.76
2017-05-20T09:07:46.559Z,19.71
2017-05-20T09:09:08.415Z,19.58
2017-05-20T09:10:30.250Z,19.56
2017-05-20T09:11:52.704Z,19.47
2017-05-20T09:13:14.890Z,19.58
2017-05-20T09:14:36.410Z,19.55
2017-05-20T09:15:58.242Z,19.65
2017-05-20T09:17:20.473Z,19.59
2017-05-20T09:18:41.501Z,19.59
2017-05-20T09:20:03.369Z,19.55
2017-05-20T09:21:24.570Z,19.76
2017-05-20T09:22:46.700Z,20.01
2017-05-20T09:24:09.172Z,20.08
2017-05-20T09:25:31.080Z,19.95
2017-05-20T09:26:53.557Z,19.87
2017-05-20T09:28:15.870Z,19.87
2017-05-20T09:29:37.407Z,19.95
2017-05-20T09:30:59.372Z,19.99
2017-05-20T09:32:21.200Z,19.96
2017-05-20T09:33:43.329Z,19.92
2017-05-20T09:35:05.856Z,20.2
2017-05-20T09:36:27.784Z,20.31
2017-05-20T09:37:49.709Z,20.43
2017-05-20T09:39:11.210Z,20.38
2017-05-20T09:40:33.701Z,20.08
2017-05-20T09:41:55.879Z,19.8
2017-05-20T09:43:18.071Z,19.68
2017-05-20T09:44:40.551Z,20.05
2017-05-20T09:46:03.102Z,20.51
2017-05-20T09:47:24.999Z,21.22
2017-05-20T09:48:47.298Z,21.56
2017-05-20T09:50:09.442Z,21.91
2017-05-20T09:51:31.922Z,21.98
2017-05-20T09:52:54.099Z,22.07
2017-05-20T09:54:15.658Z,22.18
2017-05-20T09:55:38.170Z,22.33
2017-05-20T09:57:00.020Z,22.31
2017-05-20T09:58:22.182Z,22.45
2017-05-20T09:59:44.020Z,22.24
2017-05-20T10:01:06.487Z,22.24
2017-05-20T10:02:28.349Z,22.24
2017-05-20T10:03:49.879Z,21.99
2017-05-20T10:05:12.051Z,21.77
2017-05-20T10:06:33.880Z,21.53
2017-05-20T10:07:55.080Z,21.54
2017-05-20T10:09:17.252Z,21.58
2017-05-20T10:10:39.409Z,21.77
2017-05-20T10:12:02.196Z,21.99
2017-05-20T10:13:24.055Z,22.09
2017-05-20T10:14:46.272Z,21.94
2017-05-20T10:16:07.478Z,21.79
2017-05-20T10:17:29.701Z,21.69
2017-05-20T10:18:51.856Z,21.49
2017-05-20T10:20:14.001Z,21.61
2017-05-20T10:21:36.159Z,21.65
2017-05-20T10:22:58.384Z,21.67
2017-05-20T10:24:20.589Z,22
2017-05-20T10:25:42.468Z,22.24
2017-05-20T10:27:05.000Z,22.15
2017-05-20T10:28:27.450Z,22
2017-05-20T10:29:49.711Z,22.03
2017-05-20T10:31:11.686Z,22.03
2017-05-20T10:32:33.961Z,21.86
2017-05-20T10:33:56.844Z,21.77
2017-05-20T10:35:19.312Z,21.96
2017-05-20T10:36:41.830Z,22
2017-05-20T10:38:04.043Z,22.15
2017-05-20T10:39:26.140Z,22.49
2017-05-20T10:40:48.634Z,22.79
2017-05-20T10:42:10.808Z,22.91
2017-05-20T10:43:32.004Z,22.88
2017-05-20T10:44:54.950Z,23
2017-05-20T10:46:17.511Z,23.07
2017-05-20T10:47:40.030Z,22.94
2017-05-20T10:49:02.509Z,23.07
2017-05-20T10:50:25.025Z,23.09
2017-05-20T10:51:46.879Z,23.32
2017-05-20T10:53:08.411Z,23.36
2017-05-20T10:54:30.977Z,23.01
2017-05-20T10:55:53.461Z,22.92
2017-05-20T10:57:15.628Z,23.05
2017-05-20T10:58:38.099Z,23.07
2017-05-20T11:00:00.049Z,23.35
2017-05-20T11:01:22.498Z,23.5
2017-05-20T11:02:44.401Z,23.31
2017-05-20T11:04:06.614Z,23.43
2017-05-20T11:05:28.743Z,23.72
2017-05-20T11:06:50.970Z,23.68
2017-05-20T11:08:13.335Z,23.28
2017-05-20T11:09:35.527Z,23.01
2017-05-20T11:10:57.677Z,22.76
2017-05-20T11:12:19.829Z,22.6
2017-05-20T11:13:41.671Z,22.21
2017-05-20T11:15:03.902Z,22.12
2017-05-20T11:16:25.450Z,22.03
2017-05-20T11:17:48.070Z,21.69
2017-05-20T11:19:10.252Z,21.59
2017-05-20T11:20:32.779Z,21.59
2017-05-20T11:21:54.945Z,21.61
2017-05-20T11:23:17.373Z,21.75
2017-05-20T11:24:38.919Z,21.56
2017-05-20T11:26:01.167Z,21.29
2017-05-20T11:27:23.134Z,21.01
2017-05-20T11:28:45.910Z,20.88
2017-05-20T11:30:08.386Z,21.14
2017-05-20T11:31:30.549Z,21.35
2017-05-20T11:32:53.112Z,21.56
2017-05-20T11:34:15.730Z,21.92
2017-05-20T11:35:37.710Z,22.02
2017-05-20T11:37:00.195Z,22.17
2017-05-20T11:38:22.049Z,22.18
2017-05-20T11:39:44.521Z,22.18
2017-05-20T11:41:06.380Z,22.45
2017-05-20T11:42:27.596Z,22.68
2017-05-20T11:43:49.589Z,22.83
2017-05-20T11:45:12.119Z,22.92
2017-05-20T11:46:34.274Z,22.97
2017-05-20T11:47:55.508Z,23.07
2017-05-20T11:49:17.390Z,23.31
2017-05-20T11:50:39.820Z,23.32
2017-05-20T11:52:02.331Z,23.23
2017-05-20T11:53:24.185Z,23.28
2017-05-20T11:54:46.165Z,23.31
2017-05-20T11:56:08.317Z,23.4
2017-05-20T11:57:30.521Z,23.53
2017-05-20T11:58:52.373Z,23.31
2017-05-20T12:00:14.290Z,23.28
2017-05-20T12:01:37.175Z,23.28
2017-05-20T12:02:58.770Z,23.43
2017-05-20T12:04:21.001Z,23.58
2017-05-20T12:05:43.236Z,23.7
2017-05-20T12:07:06.029Z,23.7
2017-05-20T12:08:28.188Z,23.54
2017-05-20T12:09:50.381Z,23.51
2017-05-20T12:11:12.597Z,23.73
2017-05-20T12:12:35.401Z,23.7
2017-05-20T12:13:57.680Z,23.61
2017-05-20T12:15:19.881Z,23.57
2017-05-20T12:16:40.837Z,23.61
2017-05-20T12:18:03.360Z,23.58
2017-05-20T12:19:25.620Z,23.69
2017-05-20T12:20:47.570Z,23.79
2017-05-20T12:22:09.409Z,23.76
2017-05-20T12:23:31.574Z,23.84
2017-05-20T12:24:53.159Z,24.03
2017-05-20T12:26:15.379Z,24.16
2017-05-20T12:27:37.846Z,24.21
2017-05-20T12:29:00.049Z,24.47
2017-05-20T12:30:21.991Z,24.61
2017-05-20T12:31:44.149Z,24.83
2017-05-20T12:33:06.048Z,25.03
2017-05-20T12:34:28.262Z,25.13
2017-05-20T12:35:50.439Z,25.24
2017-05-20T12:37:12.395Z,25.36
2017-05-20T12:38:34.341Z,25.55
2017-05-20T12:39:56.779Z,25.97
2017-05-20T12:41:18.409Z,26.4
2017-05-20T12:42:41.011Z,26.63
2017-05-20T12:44:02.899Z,26.32
2017-05-20T12:45:25.056Z,26.02
2017-05-20T12:46:47.524Z,25.73
2017-05-20T12:48:09.399Z,25.39
2017-05-20T12:49:31.592Z,24.85
2017-05-20T12:50:54.338Z,24.43
2017-05-20T12:52:15.889Z,24.31
2017-05-20T12:53:38.057Z,24.08
2017-05-20T12:55:00.239Z,23.8
2017-05-20T12:56:22.767Z,24.08
2017-05-20T12:57:45.066Z,24.18
2017-05-20T12:59:07.349Z,24.12
2017-05-20T13:00:29.202Z,23.97
2017-05-20T13:01:51.955Z,24.02
2017-05-20T13:03:14.219Z,23.97
2017-05-20T13:04:36.140Z,23.63
2017-05-20T13:05:58.019Z,23.28
2017-05-20T13:07:20.120Z,23.25
2017-05-20T13:08:42.315Z,23.25
2017-05-20T13:10:04.468Z,23.38
2017-05-20T13:11:25.994Z,23.39
2017-05-20T13:12:48.428Z,23.43
2017-05-20T13:14:10.939Z,23.42
2017-05-20T13:15:33.108Z,23.43
2017-05-20T13:16:55.269Z,23.43
2017-05-20T13:18:17.721Z,23.55
2017-05-20T13:19:39.628Z,23.69
2017-05-20T13:21:02.177Z,23.88
2017-05-20T13:22:24.680Z,24.06
2017-05-20T13:23:47.357Z,24.02
2017-05-20T13:25:09.948Z,24.03
2017-05-20T13:26:32.231Z,24.13
2017-05-20T13:27:53.438Z,24.15
2017-05-20T13:29:16.176Z,24.02
2017-05-20T13:30:38.354Z,23.93
2017-05-20T13:32:00.538Z,23.68
2017-05-20T13:33:22.799Z,23.78
2017-05-20T13:34:45.011Z,23.75
2017-05-20T13:36:07.218Z,23.72
2017-05-20T13:37:29.065Z,23.65
2017-05-20T13:38:50.970Z,23.31
2017-05-20T13:40:13.539Z,23.32
2017-05-20T13:41:35.078Z,23.28
2017-05-20T13:42:57.277Z,23.4
2017-05-20T13:44:19.130Z,23.5
2017-05-20T13:45:41.729Z,23.68
2017-05-20T13:47:04.460Z,23.51
2017-05-20T13:48:26.647Z,23.38
2017-05-20T13:49:48.315Z,23.2
2017-05-20T13:51:10.539Z,22.95
2017-05-20T13:52:32.723Z,22.95
2017-05-20T13:53:54.282Z,22.92
2017-05-20T13:55:16.117Z,22.82
2017-05-20T13:56:38.946Z,22.65
2017-05-20T13:58:01.529Z,22.42
2017-05-20T13:59:23.708Z,22.24
2017-05-20T14:00:45.889Z,22.18
2017-05-20T14:02:08.425Z,22.21
2017-05-20T14:03:30.921Z,22.25
2017-05-20T14:04:52.796Z,22.57
2017-05-20T14:06:14.688Z,22.77
2017-05-20T14:07:36.849Z,23.01
2017-05-20T14:08:59.169Z,22.91
2017-05-20T14:10:21.381Z,22.85
2017-05-20T14:11:43.556Z,22.95
2017-05-20T14:13:06.382Z,22.85
2017-05-20T14:14:28.868Z,22.95
2017-05-20T14:15:50.407Z,23.13
2017-05-20T14:17:12.896Z,23.01
2017-05-20T14:18:35.728Z,22.94
2017-05-20T14:19:58.242Z,22.95
2017-05-20T14:21:19.792Z,23.19
2017-05-20T14:22:41.676Z,23.22
2017-05-20T14:24:04.149Z,23.32
2017-05-20T14:25:26.640Z,23.28
2017-05-20T14:26:48.169Z,22.88
2017-05-20T14:28:10.657Z,22.21
2017-05-20T14:29:33.229Z,21.68
2017-05-20T14:30:54.891Z,21.53
2017-05-20T14:32:17.119Z,21.52
2017-05-20T14:33:38.710Z,21.52
2017-05-20T14:35:01.312Z,21.56
2017-05-20T14:36:23.630Z,21.59
2017-05-20T14:37:44.869Z,21.5
2017-05-20T14:39:06.749Z,21.54
2017-05-20T14:40:29.209Z,21.72
2017-05-20T14:41:51.057Z,21.67
2017-05-20T14:43:13.219Z,21.72
2017-05-20T14:44:34.839Z,21.54
2017-05-20T14:45:57.435Z,21.32
2017-05-20T14:47:19.152Z,21.14
2017-05-20T14:48:41.719Z,21.35
2017-05-20T14:50:03.578Z,21.42
2017-05-20T14:51:25.727Z,21.47
2017-05-20T14:52:47.680Z,21.46
2017-05-20T14:54:10.261Z,21.44
2017-05-20T14:55:32.437Z,21.49
2017-05-20T14:56:54.338Z,21.32
2017-05-20T14:58:16.828Z,21.25
2017-05-20T14:59:39.331Z,21.29
2017-05-20T15:01:01.874Z,21.32
2017-05-20T15:02:24.290Z,21.35
2017-05-20T15:03:46.927Z,21.44
2017-05-20T15:05:08.790Z,21.5
2017-05-20T15:06:30.314Z,21.5
2017-05-20T15:07:52.180Z,21.56
2017-05-20T15:09:14.688Z,21.49
2017-05-20T15:10:37.006Z,21.28
2017-05-20T15:11:58.870Z,21.35
2017-05-20T15:13:21.070Z,21.4
2017-05-20T15:14:43.377Z,21.52
2017-05-20T15:16:05.903Z,21.54
2017-05-20T15:17:27.748Z,21.38
2017-05-20T15:18:50.075Z,21.34
2017-05-20T15:20:12.250Z,21.38
2017-05-20T15:21:34.531Z,21.46
2017-05-20T15:22:56.378Z,21.5
2017-05-20T15:24:18.605Z,21.5
2017-05-20T15:25:41.108Z,21.61
2017-05-20T15:27:03.023Z,21.61
2017-05-20T15:28:25.250Z,21.52
2017-05-20T15:29:48.094Z,21.53
2017-05-20T15:31:10.000Z,21.65
2017-05-20T15:32:31.821Z,21.92
2017-05-20T15:33:53.957Z,22
2017-05-20T15:35:16.360Z,22.24
2017-05-20T15:36:38.538Z,22.21
2017-05-20T15:38:00.701Z,22.06
2017-05-20T15:39:22.850Z,21.88
2017-05-20T15:40:45.426Z,21.74
2017-05-20T15:42:07.895Z,21.59
2017-05-20T15:43:28.799Z,21.49
2017-05-20T15:44:50.669Z,21.29
2017-05-20T15:46:13.186Z,21.25
2017-05-20T15:47:35.417Z,21.12
2017-05-20T15:48:57.267Z,21.14
2017-05-20T15:50:19.120Z,21.31
2017-05-20T15:51:40.950Z,21.32
2017-05-20T15:53:02.819Z,21.49
2017-05-20T15:54:25.373Z,21.62
2017-05-20T15:55:46.889Z,21.71
2017-05-20T15:57:09.384Z,21.68
2017-05-20T15:58:31.251Z,21.59
2017-05-20T15:59:53.449Z,21.54
2017-05-20T16:01:15.364Z,21.31
2017-05-20T16:02:37.656Z,21.09
2017-05-20T16:04:00.246Z,20.89
2017-05-20T16:05:22.471Z,20.7
2017-05-20T16:06:44.638Z,20.55
2017-05-20T16:08:06.839Z,20.36
2017-05-20T16:09:28.823Z,20.39
2017-05-20T16:10:50.366Z,20.21
2017-05-20T16:12:12.535Z,19.94
2017-05-20T16:13:35.029Z,19.86
2017-05-20T16:14:57.201Z,19.69
2017-05-20T16:16:19.209Z,19.69
2017-05-20T16:17:41.111Z,19.62
2017-05-20T16:19:03.309Z,19.71
2017-05-20T16:20:25.176Z,19.68
2017-05-20T16:21:47.408Z,19.65
2017-05-20T16:23:09.660Z,19.71
2017-05-20T16:24:32.425Z,19.73
2017-05-20T16:25:54.913Z,19.76
2017-05-20T16:27:17.107Z,19.71
2017-05-20T16:28:39.277Z,19.71
2017-05-20T16:30:02.081Z,19.73
2017-05-20T16:31:24.461Z,19.68
2017-05-20T16:32:46.997Z,19.58
2017-05-20T16:34:08.901Z,19.44
2017-05-20T16:35:31.083Z,19.29
2017-05-20T16:36:53.591Z,19.04
2017-05-20T16:38:15.817Z,18.99
2017-05-20T16:39:38.075Z,19.19
2017-05-20T16:41:00.625Z,19.22
2017-05-20T16:42:23.108Z,19.44
2017-05-20T16:43:45.719Z,19.58
2017-05-20T16:45:07.557Z,19.71
2017-05-20T16:46:29.749Z,19.61
2017-05-20T16:47:53.361Z,19.58
2017-05-20T16:49:15.847Z,19.46
2017-05-20T16:50:37.694Z,19.43
2017-05-20T16:51:59.456Z,19.31
2017-05-20T16:53:21.608Z,19.13
2017-05-20T16:54:43.155Z,19.11
2017-05-20T16:56:05.425Z,19.06
2017-05-20T16:57:27.930Z,19.04
2017-05-20T16:58:50.098Z,18.98
2017-05-20T17:00:12.277Z,18.88
2017-05-20T17:01:34.920Z,18.82
2017-05-20T17:02:57.655Z,18.82
2017-05-20T17:04:20.657Z,18.81
2017-05-20T17:05:43.280Z,18.85
2017-05-20T17:07:05.461Z,18.87
2017-05-20T17:08:28.267Z,18.99
2017-05-20T17:09:50.837Z,18.99
2017-05-20T17:11:13.014Z,18.94
2017-05-20T17:12:36.943Z,19.02
2017-05-20T17:14:00.378Z,18.9
2017-05-20T17:15:22.531Z,18.84
2017-05-20T17:16:44.708Z,18.73
2017-05-20T17:18:06.808Z,18.84
2017-05-20T17:19:29.681Z,18.72
2017-05-20T17:20:52.166Z,18.66
2017-05-20T17:22:14.131Z,18.66
2017-05-20T17:23:36.643Z,18.54
2017-05-20T17:24:59.171Z,18.52
2017-05-20T17:26:21.339Z,18.51
2017-05-20T17:27:43.631Z,18.55
2017-05-20T17:29:05.847Z,18.54
2017-05-20T17:30:28.397Z,18.45
2017-05-20T17:31:50.588Z,18.51
2017-05-20T17:33:12.887Z,18.44
2017-05-20T17:34:35.043Z,18.3
2017-05-20T17:35:57.916Z,18.41
2017-05-20T17:37:20.079Z,18.3
2017-05-20T17:38:41.919Z,18.18
2017-05-20T17:40:03.772Z,18.21
2017-05-20T17:41:25.927Z,18.26